createdAt,value
2018-11-26T00:00:27.184Z,54.98
2018-11-26T00:00:58.763Z,54.96
2018-11-26T00:01:30.367Z,54.94
2018-11-26T00:02:01.985Z,54.93
2018-11-26T00:02:33.587Z,54.90
2018-11-26T00:03:05.187Z,54.96
2018-11-26T00:03:36.790Z,55.08
2018-11-26T00:04:08.399Z,55.01
2018-11-26T00:04:40.027Z,55.11
2018-11-26T00:05:11.634Z,55.08
2018-11-26T00:05:43.230Z,55.11
2018-11-26T00:06:14.824Z,55.10
2018-11-26T00:06:46.417Z,55.11
2018-11-26T00:07:18.024Z,55.12
2018-11-26T00:07:49.621Z,55.20
2018-11-26T00:08:21.203Z,55.24
2018-11-26T00:08:52.789Z,55.27
2018-11-26T00:09:24.380Z,55.22
2018-11-26T00:09:55.993Z,55.25
2018-11-26T00:10:27.585Z,55.33
2018-11-26T00:10:59.172Z,55.19
2018-11-26T00:11:30.746Z,55.25
2018-11-26T00:12:02.337Z,55.29
2018-11-26T00:12:33.938Z,55.34
2018-11-26T00:13:05.543Z,55.33
2018-11-26T00:13:37.137Z,55.34
2018-11-26T00:14:08.715Z,55.35
2018-11-26T00:14:40.328Z,55.35
2018-11-26T00:15:11.920Z,55.37
2018-11-26T00:15:43.504Z,55.29
2018-11-26T00:16:15.106Z,55.37
2018-11-26T00:16:46.699Z,55.43
2018-11-26T00:17:18.306Z,55.41
2018-11-26T00:17:49.911Z,55.40
2018-11-26T00:18:21.501Z,55.56
2018-11-26T00:18:53.089Z,55.55
2018-11-26T00:19:24.676Z,55.58
2018-11-26T00:19:56.292Z,55.50
2018-11-26T00:20:27.890Z,55.41
2018-11-26T00:20:59.477Z,55.39
2018-11-26T00:21:31.069Z,55.48
2018-11-26T00:22:02.673Z,55.58
2018-11-26T00:22:34.264Z,55.42
2018-11-26T00:23:05.850Z,55.54
2018-11-26T00:23:37.426Z,55.50
2018-11-26T00:24:09.026Z,55.63
2018-11-26T00:24:40.616Z,55.69
2018-11-26T00:25:12.247Z,55.73
2018-11-26T00:25:43.850Z,55.68
2018-11-26T00:26:15.446Z,55.66
2018-11-26T00:26:47.032Z,55.76
2018-11-26T00:27:18.612Z,55.72
2018-11-26T00:27:50.204Z,55.77
2018-11-26T00:28:21.807Z,55.70
2018-11-26T00:28:53.406Z,55.86
2018-11-26T00:29:25.002Z,55.80
2018-11-26T00:29:56.593Z,55.82
2018-11-26T00:30:28.176Z,55.74
2018-11-26T00:30:59.755Z,55.96
2018-11-26T00:31:31.359Z,55.85
2018-11-26T00:32:02.949Z,55.79
2018-11-26T00:32:34.536Z,55.84
2018-11-26T00:33:06.121Z,55.88
2018-11-26T00:33:37.699Z,55.84
2018-11-26T00:34:09.289Z,55.98
2018-11-26T00:34:40.878Z,55.95
2018-11-26T00:35:12.455Z,56.08
2018-11-26T00:35:44.045Z,56.01
2018-11-26T00:36:15.637Z,55.96
2018-11-26T00:36:47.233Z,55.97
2018-11-26T00:37:18.834Z,56.13
2018-11-26T00:37:50.420Z,56.08
2018-11-26T00:38:22.027Z,56.03
2018-11-26T00:38:53.622Z,56.12
2018-11-26T00:39:25.199Z,56.06
2018-11-26T00:39:56.785Z,56.10
2018-11-26T00:40:28.397Z,56.19
2018-11-26T00:41:00.015Z,56.19
2018-11-26T00:41:31.622Z,56.12
2018-11-26T00:42:03.216Z,56.01
2018-11-26T00:42:34.819Z,56.05
2018-11-26T00:43:06.400Z,56.01
2018-11-26T00:43:37.984Z,56.66
2018-11-26T00:44:09.583Z,56.11
2018-11-26T00:44:41.189Z,55.99
2018-11-26T00:45:12.828Z,56.20
2018-11-26T00:45:44.426Z,56.17
2018-11-26T00:46:16.031Z,56.14
2018-11-26T00:46:47.621Z,56.15
2018-11-26T00:47:19.222Z,56.19
2018-11-26T00:47:50.809Z,56.21
2018-11-26T00:48:22.400Z,56.19
2018-11-26T00:48:53.994Z,56.16
2018-11-26T00:49:25.580Z,56.02
2018-11-26T00:49:57.161Z,56.22
2018-11-26T00:50:28.773Z,56.11
2018-11-26T00:51:00.367Z,56.07
2018-11-26T00:51:32.601Z,56.05
2018-11-26T00:52:04.529Z,56.14
2018-11-26T00:52:36.153Z,56.10
2018-11-26T00:53:08.182Z,56.13
2018-11-26T00:53:40.311Z,56.15
2018-11-26T00:54:12.239Z,56.06
2018-11-26T00:54:44.164Z,56.10
2018-11-26T00:55:16.302Z,56.10
2018-11-26T00:55:47.908Z,55.96
2018-11-26T00:56:19.499Z,56.02
2018-11-26T00:56:51.084Z,56.06
2018-11-26T00:57:22.672Z,56.09
2018-11-26T00:57:54.259Z,56.04
2018-11-26T00:58:25.844Z,56.08
2018-11-26T00:58:57.435Z,56.02
2018-11-26T00:59:29.035Z,56.01
2018-11-26T01:00:00.642Z,56.07
2018-11-26T01:00:32.247Z,55.96
2018-11-26T01:01:03.842Z,56.11
2018-11-26T01:01:35.446Z,56.04
2018-11-26T01:02:07.032Z,55.95
2018-11-26T01:02:38.616Z,56.07
2018-11-26T01:03:10.216Z,56.10
2018-11-26T01:03:41.812Z,56.12
2018-11-26T01:04:13.391Z,56.08
2018-11-26T01:04:44.979Z,56.03
2018-11-26T01:05:16.606Z,55.95
2018-11-26T01:05:48.235Z,56.00
2018-11-26T01:06:19.839Z,55.95
2018-11-26T01:06:51.414Z,56.07
2018-11-26T01:07:23.000Z,56.12
2018-11-26T01:07:54.588Z,56.11
2018-11-26T01:08:26.187Z,56.09
2018-11-26T01:08:57.772Z,56.13
2018-11-26T01:09:29.360Z,56.11
2018-11-26T01:10:00.948Z,56.09
2018-11-26T01:10:32.575Z,56.04
2018-11-26T01:11:04.160Z,56.10
2018-11-26T01:11:35.762Z,56.10
2018-11-26T01:12:07.348Z,56.05
2018-11-26T01:12:38.955Z,56.05
2018-11-26T01:13:10.539Z,56.02
2018-11-26T01:13:42.124Z,55.98
2018-11-26T01:14:13.722Z,55.94
2018-11-26T01:14:45.308Z,56.21
2018-11-26T01:15:16.887Z,56.15
2018-11-26T01:15:48.488Z,56.05
2018-11-26T01:16:20.072Z,56.04
2018-11-26T01:16:51.675Z,56.00
2018-11-26T01:17:23.282Z,56.14
2018-11-26T01:17:54.877Z,56.04
2018-11-26T01:18:26.470Z,56.15
2018-11-26T01:18:58.059Z,55.99
2018-11-26T01:19:29.654Z,56.07
2018-11-26T01:20:01.240Z,56.10
2018-11-26T01:20:32.856Z,56.14
2018-11-26T01:21:04.440Z,56.13
2018-11-26T01:21:36.033Z,56.08
2018-11-26T01:22:07.638Z,56.17
2018-11-26T01:22:39.229Z,56.17
2018-11-26T01:23:10.831Z,56.17
2018-11-26T01:23:42.434Z,56.18
2018-11-26T01:24:14.029Z,56.05
2018-11-26T01:24:45.610Z,56.20
2018-11-26T01:25:17.214Z,56.31
2018-11-26T01:25:48.864Z,56.25
2018-11-26T01:26:20.475Z,56.27
2018-11-26T01:26:52.074Z,56.28
2018-11-26T01:27:23.651Z,56.30
2018-11-26T01:27:55.241Z,56.29
2018-11-26T01:28:26.832Z,56.42
2018-11-26T01:28:58.456Z,56.30
2018-11-26T01:29:30.058Z,56.41
2018-11-26T01:30:01.659Z,56.57
2018-11-26T01:30:33.285Z,56.46
2018-11-26T01:31:04.895Z,56.66
2018-11-26T01:31:36.501Z,56.66
2018-11-26T01:32:08.088Z,56.67
2018-11-26T01:32:39.676Z,56.70
2018-11-26T01:33:11.268Z,56.77
2018-11-26T01:33:42.847Z,56.84
2018-11-26T01:34:14.437Z,56.77
2018-11-26T01:34:46.041Z,56.94
2018-11-26T01:35:17.631Z,57.05
2018-11-26T01:35:49.245Z,57.16
2018-11-26T01:36:20.862Z,57.25
2018-11-26T01:36:52.462Z,57.27
2018-11-26T01:37:24.069Z,57.29
2018-11-26T01:37:55.664Z,57.35
2018-11-26T01:38:27.251Z,57.54
2018-11-26T01:38:58.854Z,57.61
2018-11-26T01:39:30.458Z,57.66
2018-11-26T01:40:02.077Z,57.55
2018-11-26T01:40:33.706Z,57.64
2018-11-26T01:41:05.310Z,57.86
2018-11-26T01:41:36.915Z,57.87
2018-11-26T01:42:08.504Z,58.02
2018-11-26T01:42:40.096Z,58.11
2018-11-26T01:43:11.684Z,58.14
2018-11-26T01:43:43.293Z,57.92
2018-11-26T01:44:14.871Z,57.97
2018-11-26T01:44:46.469Z,58.13
2018-11-26T01:45:18.075Z,58.22
2018-11-26T01:45:49.693Z,58.16
2018-11-26T01:46:21.280Z,58.34
2018-11-26T01:46:52.870Z,58.33
2018-11-26T01:47:24.471Z,58.42
2018-11-26T01:47:56.064Z,58.13
2018-11-26T01:48:27.643Z,58.45
2018-11-26T01:48:59.238Z,58.46
2018-11-26T01:49:30.842Z,58.42
2018-11-26T01:50:02.441Z,58.46
2018-11-26T01:50:34.033Z,58.50
2018-11-26T01:51:05.649Z,58.46
2018-11-26T01:51:37.236Z,58.71
2018-11-26T01:52:08.829Z,58.99
2018-11-26T01:52:40.420Z,58.81
2018-11-26T01:53:12.012Z,58.73
2018-11-26T01:53:43.618Z,58.65
2018-11-26T01:54:15.220Z,58.78
2018-11-26T01:54:46.809Z,58.69
2018-11-26T01:55:18.396Z,58.81
2018-11-26T01:55:50.029Z,58.59
2018-11-26T01:56:21.652Z,58.24
2018-11-26T01:56:53.296Z,58.30
2018-11-26T01:57:24.868Z,57.63
2018-11-26T01:57:56.452Z,57.49
2018-11-26T01:58:28.036Z,57.50
2018-11-26T01:58:59.642Z,57.52
2018-11-26T01:59:31.229Z,57.41
2018-11-26T02:00:02.827Z,57.41
2018-11-26T02:00:34.434Z,57.46
2018-11-26T02:01:06.101Z,57.49
2018-11-26T02:01:37.699Z,57.59
2018-11-26T02:02:09.280Z,57.60
2018-11-26T02:02:40.886Z,57.70
2018-11-26T02:03:12.487Z,57.74
2018-11-26T02:03:44.076Z,57.81
2018-11-26T02:04:15.683Z,57.88
2018-11-26T02:04:47.260Z,57.62
2018-11-26T02:05:18.860Z,57.80
2018-11-26T02:05:50.468Z,57.74
2018-11-26T02:06:22.084Z,57.77
2018-11-26T02:06:53.686Z,57.86
2018-11-26T02:07:25.279Z,57.83
2018-11-26T02:07:56.887Z,57.84
2018-11-26T02:08:28.472Z,57.84
2018-11-26T02:09:00.065Z,57.65
2018-11-26T02:09:31.640Z,57.80
2018-11-26T02:10:03.220Z,57.70
2018-11-26T02:10:34.801Z,57.58
2018-11-26T02:11:06.440Z,57.68
2018-11-26T02:11:38.033Z,57.82
2018-11-26T02:12:09.624Z,57.61
2018-11-26T02:12:41.201Z,57.77
2018-11-26T02:13:12.789Z,57.82
2018-11-26T02:13:44.376Z,58.05
2018-11-26T02:14:15.965Z,58.04
2018-11-26T02:14:47.567Z,57.97
2018-11-26T02:15:19.157Z,57.94
2018-11-26T02:15:50.731Z,57.95
2018-11-26T02:16:22.346Z,57.89
2018-11-26T02:16:53.932Z,57.88
2018-11-26T02:17:25.522Z,57.95
2018-11-26T02:17:57.108Z,57.92
2018-11-26T02:18:28.711Z,58.13
2018-11-26T02:19:00.300Z,57.91
2018-11-26T02:19:31.885Z,58.06
2018-11-26T02:20:03.482Z,57.99
2018-11-26T02:20:35.083Z,57.97
2018-11-26T02:21:06.683Z,57.81
2018-11-26T02:21:38.316Z,57.82
2018-11-26T02:22:09.904Z,57.76
2018-11-26T02:22:41.515Z,57.74
2018-11-26T02:23:13.119Z,57.69
2018-11-26T02:23:44.727Z,57.72
2018-11-26T02:24:16.332Z,57.75
2018-11-26T02:24:47.916Z,57.86
2018-11-26T02:25:19.511Z,57.78
2018-11-26T02:25:51.101Z,57.76
2018-11-26T02:26:22.731Z,57.79
2018-11-26T02:26:54.330Z,57.68
2018-11-26T02:27:25.926Z,57.63
2018-11-26T02:27:57.531Z,57.70
2018-11-26T02:28:29.118Z,57.79
2018-11-26T02:29:00.718Z,57.75
2018-11-26T02:29:32.342Z,57.73
2018-11-26T02:30:03.929Z,57.66
2018-11-26T02:30:35.535Z,57.88
2018-11-26T02:31:07.139Z,57.77
2018-11-26T02:31:38.771Z,57.82
2018-11-26T02:32:10.356Z,57.76
2018-11-26T02:32:41.935Z,57.82
2018-11-26T02:33:13.534Z,57.69
2018-11-26T02:33:45.130Z,57.77
2018-11-26T02:34:16.706Z,57.84
2018-11-26T02:34:48.311Z,57.75
2018-11-26T02:35:19.951Z,57.86
2018-11-26T02:35:51.545Z,57.78
2018-11-26T02:36:23.151Z,57.79
2018-11-26T02:36:54.744Z,57.77
2018-11-26T02:37:26.329Z,57.68
2018-11-26T02:37:57.916Z,57.75
2018-11-26T02:38:29.558Z,57.61
2018-11-26T02:39:01.147Z,57.72
2018-11-26T02:39:32.751Z,57.69
2018-11-26T02:40:04.356Z,57.66
2018-11-26T02:40:35.944Z,57.80
2018-11-26T02:41:07.522Z,57.98
2018-11-26T02:41:39.130Z,57.87
2018-11-26T02:42:10.731Z,58.01
2018-11-26T02:42:42.344Z,57.83
2018-11-26T02:43:13.937Z,57.92
2018-11-26T02:43:45.524Z,57.98
2018-11-26T02:44:17.102Z,58.21
2018-11-26T02:44:48.688Z,58.00
2018-11-26T02:45:20.276Z,58.03
2018-11-26T02:45:51.855Z,57.97
2018-11-26T02:46:23.445Z,58.05
2018-11-26T02:46:55.059Z,58.12
2018-11-26T02:47:26.668Z,58.03
2018-11-26T02:47:58.266Z,58.02
2018-11-26T02:48:29.864Z,58.19
2018-11-26T02:49:01.453Z,58.16
2018-11-26T02:49:33.048Z,58.18
2018-11-26T02:50:04.643Z,58.13
2018-11-26T02:50:36.245Z,58.08
2018-11-26T02:51:07.846Z,58.06
2018-11-26T02:51:39.436Z,58.07
2018-11-26T02:52:11.049Z,58.00
2018-11-26T02:52:42.650Z,58.03
2018-11-26T02:53:14.237Z,57.87
2018-11-26T02:53:45.845Z,58.10
2018-11-26T02:54:17.432Z,58.03
2018-11-26T02:54:49.018Z,57.96
2018-11-26T02:55:20.600Z,57.98
2018-11-26T02:55:52.190Z,57.98
2018-11-26T02:56:23.766Z,57.93
2018-11-26T02:56:55.390Z,57.98
2018-11-26T02:57:26.990Z,58.06
2018-11-26T02:57:58.566Z,57.98
2018-11-26T02:58:30.177Z,58.08
2018-11-26T02:59:01.788Z,58.03
2018-11-26T02:59:33.390Z,57.94
2018-11-26T03:00:04.999Z,58.01
2018-11-26T03:00:36.600Z,57.97
2018-11-26T03:01:08.203Z,58.06
2018-11-26T03:01:39.796Z,58.17
2018-11-26T03:02:11.403Z,58.12
2018-11-26T03:02:42.998Z,58.02
2018-11-26T03:03:14.595Z,58.08
2018-11-26T03:03:46.202Z,58.12
2018-11-26T03:04:17.802Z,58.12
2018-11-26T03:04:49.383Z,58.11
2018-11-26T03:05:20.982Z,58.07
2018-11-26T03:05:52.589Z,58.17
2018-11-26T03:06:24.177Z,58.13
2018-11-26T03:06:55.781Z,58.05
2018-11-26T03:07:27.392Z,58.28
2018-11-26T03:07:58.991Z,58.17
2018-11-26T03:08:30.635Z,58.21
2018-11-26T03:09:02.235Z,58.18
2018-11-26T03:09:33.825Z,58.18
2018-11-26T03:10:05.413Z,58.17
2018-11-26T03:10:37.004Z,58.22
2018-11-26T03:11:08.593Z,58.12
2018-11-26T03:11:40.177Z,58.22
2018-11-26T03:12:11.782Z,58.21
2018-11-26T03:12:43.382Z,58.16
2018-11-26T03:13:14.968Z,58.19
2018-11-26T03:13:46.564Z,58.14
2018-11-26T03:14:18.167Z,58.29
2018-11-26T03:14:49.770Z,58.22
2018-11-26T03:15:21.361Z,58.07
2018-11-26T03:15:52.944Z,58.13
2018-11-26T03:16:24.532Z,58.22
2018-11-26T03:16:56.119Z,58.24
2018-11-26T03:17:27.742Z,58.17
2018-11-26T03:17:59.319Z,58.09
2018-11-26T03:18:30.920Z,58.08
2018-11-26T03:19:02.519Z,58.15
2018-11-26T03:19:34.106Z,58.16
2018-11-26T03:20:05.692Z,58.24
2018-11-26T03:20:37.288Z,58.09
2018-11-26T03:21:08.873Z,58.23
2018-11-26T03:21:40.478Z,58.07
2018-11-26T03:22:12.102Z,58.20
2018-11-26T03:22:43.691Z,58.03
2018-11-26T03:23:15.275Z,58.10
2018-11-26T03:23:46.871Z,58.20
2018-11-26T03:24:18.474Z,58.18
2018-11-26T03:24:50.079Z,58.06
2018-11-26T03:25:21.675Z,58.09
2018-11-26T03:25:53.265Z,58.07
2018-11-26T03:26:24.842Z,58.30
2018-11-26T03:26:56.433Z,58.40
2018-11-26T03:27:28.066Z,58.18
2018-11-26T03:27:59.674Z,58.31
2018-11-26T03:28:31.266Z,58.16
2018-11-26T03:29:02.867Z,58.35
2018-11-26T03:29:34.443Z,58.23
2018-11-26T03:30:06.059Z,58.40
2018-11-26T03:30:37.667Z,58.37
2018-11-26T03:31:09.267Z,58.47
2018-11-26T03:31:40.856Z,58.22
2018-11-26T03:32:12.473Z,58.23
2018-11-26T03:32:44.062Z,58.32
2018-11-26T03:33:15.651Z,58.38
2018-11-26T03:33:47.252Z,58.31
2018-11-26T03:34:18.848Z,58.25
2018-11-26T03:34:50.437Z,58.71
2018-11-26T03:35:22.016Z,58.38
2018-11-26T03:35:53.600Z,58.29
2018-11-26T03:36:25.188Z,58.23
2018-11-26T03:36:56.791Z,58.28
2018-11-26T03:37:28.404Z,58.13
2018-11-26T03:37:59.995Z,58.23
2018-11-26T03:38:31.589Z,58.17
2018-11-26T03:39:03.168Z,58.08
2018-11-26T03:39:34.776Z,58.23
2018-11-26T03:40:06.378Z,58.19
2018-11-26T03:40:37.954Z,58.17
2018-11-26T03:41:09.551Z,58.57
2018-11-26T03:41:41.135Z,58.49
2018-11-26T03:42:12.762Z,58.41
2018-11-26T03:42:44.343Z,58.26
2018-11-26T03:43:15.942Z,58.38
2018-11-26T03:43:47.529Z,58.45
2018-11-26T03:44:19.133Z,58.44
2018-11-26T03:44:50.736Z,58.62
2018-11-26T03:45:22.335Z,58.60
2018-11-26T03:45:54.012Z,58.55
2018-11-26T03:46:25.611Z,58.53
2018-11-26T03:46:57.201Z,58.52
2018-11-26T03:47:28.850Z,58.48
2018-11-26T03:48:00.441Z,58.54
2018-11-26T03:48:32.028Z,58.65
2018-11-26T03:49:03.603Z,58.61
2018-11-26T03:49:35.183Z,58.56
2018-11-26T03:50:06.789Z,58.61
2018-11-26T03:50:38.370Z,58.62
2018-11-26T03:51:09.951Z,58.59
2018-11-26T03:51:41.554Z,58.68
2018-11-26T03:52:13.188Z,58.69
2018-11-26T03:52:44.780Z,58.70
2018-11-26T03:53:16.370Z,58.48
2018-11-26T03:53:47.963Z,58.56
2018-11-26T03:54:19.539Z,58.72
2018-11-26T03:54:51.147Z,59.04
2018-11-26T03:55:22.755Z,58.74
2018-11-26T03:55:54.359Z,58.49
2018-11-26T03:56:25.951Z,58.70
2018-11-26T03:56:57.531Z,58.42
2018-11-26T03:57:29.159Z,58.60
2018-11-26T03:58:00.738Z,58.51
2018-11-26T03:58:32.328Z,58.55
2018-11-26T03:59:03.921Z,58.53
2018-11-26T03:59:35.511Z,58.53
2018-11-26T04:00:07.100Z,58.50
2018-11-26T04:00:38.696Z,58.69
2018-11-26T04:01:10.295Z,58.50
2018-11-26T04:01:41.882Z,58.53
2018-11-26T04:02:13.512Z,58.52
2018-11-26T04:02:45.090Z,58.61
2018-11-26T04:03:16.676Z,58.60
2018-11-26T04:03:48.265Z,58.54
2018-11-26T04:04:19.853Z,58.49
2018-11-26T04:04:51.445Z,58.52
2018-11-26T04:05:23.037Z,58.48
2018-11-26T04:05:54.628Z,58.50
2018-11-26T04:06:26.234Z,58.57
2018-11-26T04:06:57.839Z,58.47
2018-11-26T04:07:29.452Z,58.50
2018-11-26T04:08:01.027Z,58.59
2018-11-26T04:08:32.603Z,58.68
2018-11-26T04:09:04.200Z,58.96
2018-11-26T04:09:35.785Z,58.71
2018-11-26T04:10:07.363Z,58.92
2018-11-26T04:10:38.946Z,58.96
2018-11-26T04:11:10.536Z,58.94
2018-11-26T04:11:42.129Z,58.84
2018-11-26T04:12:13.748Z,59.00
2018-11-26T04:12:45.323Z,59.09
2018-11-26T04:13:16.930Z,59.19
2018-11-26T04:13:48.524Z,59.19
2018-11-26T04:14:20.118Z,59.19
2018-11-26T04:14:51.729Z,59.16
2018-11-26T04:15:23.320Z,59.19
2018-11-26T04:15:54.899Z,59.31
2018-11-26T04:16:26.488Z,59.32
2018-11-26T04:16:58.098Z,59.45
2018-11-26T04:17:29.724Z,59.50
2018-11-26T04:18:01.316Z,59.55
2018-11-26T04:18:32.919Z,59.59
2018-11-26T04:19:04.527Z,59.52
2018-11-26T04:19:36.136Z,59.45
2018-11-26T04:20:07.737Z,59.80
2018-11-26T04:20:39.349Z,59.50
2018-11-26T04:21:10.950Z,59.71
2018-11-26T04:21:42.541Z,59.56
2018-11-26T04:22:14.190Z,59.67
2018-11-26T04:22:45.781Z,59.74
2018-11-26T04:23:17.383Z,59.60
2018-11-26T04:23:48.973Z,59.69
2018-11-26T04:24:20.574Z,59.89
2018-11-26T04:24:52.165Z,59.56
2018-11-26T04:25:23.768Z,59.84
2018-11-26T04:25:55.360Z,59.81
2018-11-26T04:26:26.962Z,59.78
2018-11-26T04:26:58.617Z,59.99
2018-11-26T04:27:30.220Z,59.84
2018-11-26T04:28:01.817Z,60.01
2018-11-26T04:28:33.418Z,59.86
2018-11-26T04:29:05.027Z,59.92
2018-11-26T04:29:36.608Z,59.95
2018-11-26T04:30:08.192Z,59.87
2018-11-26T04:30:39.802Z,60.10
2018-11-26T04:31:11.397Z,60.01
2018-11-26T04:31:42.975Z,60.27
2018-11-26T04:32:14.555Z,59.98
2018-11-26T04:32:46.186Z,60.18
2018-11-26T04:33:17.795Z,60.09
2018-11-26T04:33:49.373Z,60.25
2018-11-26T04:34:20.970Z,60.27
2018-11-26T04:34:52.572Z,60.18
2018-11-26T04:35:24.176Z,60.19
2018-11-26T04:35:55.765Z,60.22
2018-11-26T04:36:27.362Z,60.24
2018-11-26T04:36:58.972Z,60.33
2018-11-26T04:37:30.620Z,60.25
2018-11-26T04:38:02.223Z,60.24
2018-11-26T04:38:33.816Z,60.34
2018-11-26T04:39:05.404Z,60.36
2018-11-26T04:39:36.997Z,60.41
2018-11-26T04:40:08.589Z,60.36
2018-11-26T04:40:40.163Z,60.34
2018-11-26T04:41:11.756Z,60.49
2018-11-26T04:41:43.344Z,60.57
2018-11-26T04:42:14.964Z,60.42
2018-11-26T04:42:46.604Z,60.27
2018-11-26T04:43:18.206Z,61.07
2018-11-26T04:43:49.799Z,60.90
2018-11-26T04:44:21.392Z,60.92
2018-11-26T04:44:52.982Z,61.06
2018-11-26T04:45:24.590Z,61.10
2018-11-26T04:45:56.171Z,60.98
2018-11-26T04:46:27.759Z,61.15
2018-11-26T04:46:59.355Z,61.00
2018-11-26T04:47:30.958Z,61.29
2018-11-26T04:48:02.576Z,61.10
2018-11-26T04:48:34.154Z,61.39
2018-11-26T04:49:05.745Z,61.53
2018-11-26T04:49:37.351Z,61.72
2018-11-26T04:50:08.948Z,61.82
2018-11-26T04:50:40.540Z,61.90
2018-11-26T04:51:12.138Z,61.87
2018-11-26T04:51:43.743Z,61.79
2018-11-26T04:52:15.346Z,61.97
2018-11-26T04:52:46.960Z,61.73
2018-11-26T04:53:18.553Z,62.00
2018-11-26T04:53:50.159Z,61.63
2018-11-26T04:54:21.745Z,61.58
2018-11-26T04:54:53.347Z,61.71
2018-11-26T04:55:24.937Z,61.72
2018-11-26T04:55:56.539Z,61.43
2018-11-26T04:56:28.134Z,61.62
2018-11-26T04:56:59.742Z,61.76
2018-11-26T04:57:31.333Z,61.68
2018-11-26T04:58:02.921Z,61.66
2018-11-26T04:58:34.525Z,61.73
2018-11-26T04:59:06.116Z,61.52
2018-11-26T04:59:37.705Z,61.76
2018-11-26T05:00:09.297Z,61.61
2018-11-26T05:00:40.894Z,61.65
2018-11-26T05:01:12.505Z,61.60
2018-11-26T05:01:44.092Z,61.75
2018-11-26T05:02:15.667Z,61.40
2018-11-26T05:02:47.267Z,61.53
2018-11-26T05:03:18.866Z,61.61
2018-11-26T05:03:50.457Z,61.72
2018-11-26T05:04:22.060Z,61.68
2018-11-26T05:04:53.666Z,61.69
2018-11-26T05:05:25.253Z,61.50
2018-11-26T05:05:56.883Z,61.63
2018-11-26T05:06:28.487Z,61.43
2018-11-26T05:07:00.102Z,61.38
2018-11-26T05:07:31.697Z,61.48
2018-11-26T05:08:03.377Z,61.41
2018-11-26T05:08:34.978Z,61.24
2018-11-26T05:09:06.580Z,61.34
2018-11-26T05:09:38.186Z,61.09
2018-11-26T05:10:09.794Z,61.24
2018-11-26T05:10:41.385Z,60.93
2018-11-26T05:11:12.973Z,61.11
2018-11-26T05:11:44.570Z,61.25
2018-11-26T05:12:16.186Z,61.17
2018-11-26T05:12:47.810Z,60.87
2018-11-26T05:13:19.428Z,61.01
2018-11-26T05:13:51.016Z,60.93
2018-11-26T05:14:22.605Z,60.74
2018-11-26T05:14:54.213Z,61.08
2018-11-26T05:15:25.822Z,61.11
2018-11-26T05:15:57.399Z,61.00
2018-11-26T05:16:28.988Z,60.99
2018-11-26T05:17:00.591Z,61.05
2018-11-26T05:17:32.194Z,61.35
2018-11-26T05:18:03.788Z,60.88
2018-11-26T05:18:35.404Z,60.90
2018-11-26T05:19:06.997Z,60.95
2018-11-26T05:19:38.613Z,60.90
2018-11-26T05:20:10.201Z,60.91
2018-11-26T05:20:41.818Z,60.74
2018-11-26T05:21:13.413Z,60.77
2018-11-26T05:21:45.021Z,61.02
2018-11-26T05:22:16.603Z,60.82
2018-11-26T05:22:48.200Z,60.91
2018-11-26T05:23:19.841Z,60.92
2018-11-26T05:23:51.493Z,61.01
2018-11-26T05:24:23.071Z,60.89
2018-11-26T05:24:54.666Z,60.87
2018-11-26T05:25:26.272Z,61.13
2018-11-26T05:25:57.875Z,61.05
2018-11-26T05:26:29.479Z,61.04
2018-11-26T05:27:01.083Z,61.25
2018-11-26T05:27:32.683Z,61.73
2018-11-26T05:28:04.272Z,61.51
2018-11-26T05:28:35.896Z,61.46
2018-11-26T05:29:07.503Z,61.29
2018-11-26T05:29:39.107Z,61.20
2018-11-26T05:30:10.694Z,61.33
2018-11-26T05:30:42.300Z,61.00
2018-11-26T05:31:13.904Z,61.22
2018-11-26T05:31:45.483Z,61.36
2018-11-26T05:32:17.068Z,61.41
2018-11-26T05:32:48.668Z,61.36
2018-11-26T05:33:20.257Z,61.44
2018-11-26T05:33:51.873Z,61.39
2018-11-26T05:34:23.479Z,61.50
2018-11-26T05:34:55.069Z,61.36
2018-11-26T05:35:26.652Z,61.45
2018-11-26T05:35:58.227Z,61.69
2018-11-26T05:36:29.827Z,61.60
2018-11-26T05:37:01.432Z,61.85
2018-11-26T05:37:33.055Z,61.77
2018-11-26T05:38:04.659Z,62.05
2018-11-26T05:38:36.243Z,61.89
2018-11-26T05:39:07.874Z,61.82
2018-11-26T05:39:39.487Z,61.64
2018-11-26T05:40:11.091Z,61.77
2018-11-26T05:40:42.685Z,61.61
2018-11-26T05:41:14.291Z,61.78
2018-11-26T05:41:45.899Z,61.71
2018-11-26T05:42:17.495Z,61.37
2018-11-26T05:42:49.085Z,61.54
2018-11-26T05:43:22.860Z,61.82
2018-11-26T05:43:54.477Z,61.53
2018-11-26T05:44:26.089Z,61.75
2018-11-26T05:44:57.686Z,61.81
2018-11-26T05:45:29.279Z,61.87
2018-11-26T05:46:00.855Z,61.97
2018-11-26T05:46:32.440Z,61.83
2018-11-26T05:47:04.025Z,61.92
2018-11-26T05:47:35.628Z,61.81
2018-11-26T05:48:07.250Z,61.66
2018-11-26T05:48:38.836Z,61.74
2018-11-26T05:49:10.441Z,61.68
2018-11-26T05:49:42.051Z,61.95
2018-11-26T05:50:14.166Z,61.80
2018-11-26T05:50:45.842Z,61.83
2018-11-26T05:51:19.878Z,61.72
2018-11-26T05:51:51.473Z,61.90
2018-11-26T05:52:23.075Z,62.26
2018-11-26T05:52:54.686Z,62.20
2018-11-26T05:53:26.303Z,61.94
2018-11-26T05:53:57.936Z,62.13
2018-11-26T05:54:29.534Z,61.90
2018-11-26T05:55:01.121Z,61.77
2018-11-26T05:55:32.703Z,61.72
2018-11-26T05:56:04.288Z,61.87
2018-11-26T05:56:35.877Z,61.77
2018-11-26T05:57:07.468Z,61.77
2018-11-26T05:57:39.074Z,61.77
2018-11-26T05:58:10.665Z,61.45
2018-11-26T05:58:42.247Z,61.82
2018-11-26T05:59:13.863Z,61.91
2018-11-26T05:59:45.452Z,61.80
2018-11-26T06:00:17.049Z,61.61
2018-11-26T06:00:48.633Z,61.61
2018-11-26T06:01:20.211Z,61.69
2018-11-26T06:01:51.800Z,61.68
2018-11-26T06:02:23.390Z,61.93
2018-11-26T06:02:54.994Z,61.86
2018-11-26T06:03:26.619Z,61.78
2018-11-26T06:03:58.271Z,61.80
2018-11-26T06:04:29.858Z,61.90
2018-11-26T06:05:01.445Z,62.00
2018-11-26T06:05:33.033Z,62.09
2018-11-26T06:06:04.644Z,61.92
2018-11-26T06:06:36.236Z,62.25
2018-11-26T06:07:07.835Z,61.97
2018-11-26T06:07:39.429Z,61.94
2018-11-26T06:08:11.006Z,62.04
2018-11-26T06:08:42.600Z,61.94
2018-11-26T06:09:14.213Z,61.95
2018-11-26T06:09:45.801Z,61.93
2018-11-26T06:10:17.391Z,61.81
2018-11-26T06:10:48.987Z,61.96
2018-11-26T06:11:20.586Z,61.79
2018-11-26T06:11:52.181Z,61.81
2018-11-26T06:12:23.772Z,61.82
2018-11-26T06:12:55.365Z,61.86
2018-11-26T06:13:26.952Z,61.67
2018-11-26T06:13:58.550Z,61.75
2018-11-26T06:14:30.173Z,61.86
2018-11-26T06:15:01.782Z,61.80
2018-11-26T06:15:33.390Z,61.70
2018-11-26T06:16:04.990Z,61.68
2018-11-26T06:16:36.591Z,61.70
2018-11-26T06:17:08.177Z,61.60
2018-11-26T06:17:39.765Z,61.82
2018-11-26T06:18:11.338Z,61.75
2018-11-26T06:18:42.928Z,61.74
2018-11-26T06:19:14.591Z,61.81
2018-11-26T06:19:46.216Z,61.73
2018-11-26T06:20:17.812Z,61.63
2018-11-26T06:20:49.401Z,61.60
2018-11-26T06:21:21.003Z,61.52
2018-11-26T06:21:52.606Z,61.55
2018-11-26T06:22:24.209Z,61.52
2018-11-26T06:22:55.800Z,61.65
2018-11-26T06:23:27.386Z,61.43
2018-11-26T06:23:58.977Z,61.59
2018-11-26T06:24:30.572Z,61.48
2018-11-26T06:25:02.191Z,61.44
2018-11-26T06:25:33.811Z,61.50
2018-11-26T06:26:05.430Z,61.37
2018-11-26T06:26:37.025Z,61.42
2018-11-26T06:27:08.607Z,61.42
2018-11-26T06:27:40.211Z,61.43
2018-11-26T06:28:11.794Z,61.30
2018-11-26T06:28:43.372Z,61.29
2018-11-26T06:29:14.957Z,61.30
2018-11-26T06:29:46.602Z,61.22
2018-11-26T06:30:18.194Z,61.25
2018-11-26T06:30:49.798Z,61.31
2018-11-26T06:31:21.394Z,61.30
2018-11-26T06:31:52.984Z,61.32
2018-11-26T06:32:24.565Z,61.14
2018-11-26T06:32:56.162Z,61.22
2018-11-26T06:33:27.753Z,61.14
2018-11-26T06:33:59.340Z,61.24
2018-11-26T06:34:30.928Z,61.27
2018-11-26T06:35:02.530Z,61.23
2018-11-26T06:35:34.107Z,61.24
2018-11-26T06:36:05.689Z,61.22
2018-11-26T06:36:37.297Z,61.18
2018-11-26T06:37:08.893Z,61.12
2018-11-26T06:37:40.499Z,61.11
2018-11-26T06:38:12.102Z,61.18
2018-11-26T06:38:43.688Z,61.18
2018-11-26T06:39:15.288Z,61.07
2018-11-26T06:39:46.905Z,60.98
2018-11-26T06:40:18.496Z,60.91
2018-11-26T06:40:50.089Z,60.87
2018-11-26T06:41:21.691Z,60.83
2018-11-26T06:41:53.266Z,60.87
2018-11-26T06:42:24.874Z,60.59
2018-11-26T06:42:56.476Z,60.66
2018-11-26T06:43:28.071Z,60.71
2018-11-26T06:43:59.650Z,60.78
2018-11-26T06:44:31.241Z,60.51
2018-11-26T06:45:02.829Z,60.68
2018-11-26T06:45:34.431Z,60.58
2018-11-26T06:46:06.020Z,60.61
2018-11-26T06:46:37.623Z,60.51
2018-11-26T06:47:09.207Z,60.36